createdAt,value
2018-09-04T00:00:15.984Z,100
2018-09-04T00:05:15.816Z,100
2018-09-04T00:10:28.144Z,100
2018-09-04T00:15:28.075Z,100
2018-09-04T00:20:27.869Z,100
2018-09-04T00:25:27.857Z,100
2018-09-04T00:30:27.873Z,100
2018-09-04T00:35:27.859Z,100
2018-09-04T00:40:27.859Z,100
2018-09-04T00:45:35.148Z,100
2018-09-04T00:50:34.875Z,100
2018-09-04T00:55:47.776Z,100
2018-09-04T01:00:47.714Z,100
2018-09-04T01:05:47.513Z,100
2018-09-04T01:10:47.676Z,100
2018-09-04T01:15:47.508Z,100
2018-09-04T01:20:47.512Z,100
2018-09-04T01:25:47.513Z,100
2018-09-04T01:30:47.765Z,100
2018-09-04T01:35:47.953Z,100
2018-09-04T01:41:00.037Z,100
2018-09-04T01:46:00.003Z,100
2018-09-04T01:50:59.938Z,100
2018-09-04T01:55:59.781Z,100
2018-09-04T02:00:59.995Z,100
2018-09-04T02:05:59.891Z,100
2018-09-04T02:10:59.800Z,100
2018-09-04T02:16:00.019Z,100
2018-09-04T02:21:00.025Z,100
2018-09-04T02:26:12.139Z,100
2018-09-04T02:31:11.874Z,100
2018-09-04T02:36:11.823Z,100
2018-09-04T02:41:11.872Z,100
2018-09-04T02:46:11.978Z,100
2018-09-04T02:51:11.873Z,100
2018-09-04T02:56:11.930Z,100
2018-09-04T03:01:13.010Z,100
2018-09-04T03:06:12.932Z,100
2018-09-04T03:11:25.300Z,100
2018-09-04T03:16:25.191Z,100
2018-09-04T03:21:25.228Z,100
2018-09-04T03:26:25.268Z,100
2018-09-04T03:31:25.155Z,100
2018-09-04T03:36:25.231Z,100
2018-09-04T03:41:25.254Z,100
2018-09-04T03:46:25.044Z,100
2018-09-04T03:51:25.241Z,100
2018-09-04T03:56:37.422Z,100
2018-09-04T04:01:37.125Z,100
2018-09-04T04:06:37.151Z,100
2018-09-04T04:11:37.165Z,100
2018-09-04T04:16:37.384Z,100
2018-09-04T04:21:37.147Z,100
2018-09-04T04:26:37.155Z,100
2018-09-04T04:31:37.755Z,100
2018-09-04T04:36:37.498Z,100
2018-09-04T04:41:50.264Z,100
2018-09-04T04:46:50.180Z,100
2018-09-04T04:51:50.216Z,100
2018-09-04T04:56:50.134Z,100
2018-09-04T05:01:49.978Z,100
2018-09-04T05:06:49.963Z,100
2018-09-04T05:11:49.931Z,100
2018-09-04T05:16:51.148Z,100
2018-09-04T05:21:50.870Z,100
2018-09-04T05:27:03.425Z,100
2018-09-04T05:32:03.153Z,100
2018-09-04T05:37:03.301Z,100
2018-09-04T05:42:03.348Z,100
2018-09-04T05:47:03.181Z,100
2018-09-04T05:52:03.195Z,100
2018-09-04T05:57:03.333Z,100
2018-09-04T06:02:03.132Z,100
2018-09-04T06:07:03.282Z,100
2018-09-04T06:12:03.191Z,100
2018-09-04T06:17:03.189Z,100
2018-09-04T06:22:03.193Z,100
2018-09-04T06:27:04.298Z,100
2018-09-04T06:32:04.197Z,100
2018-09-04T06:37:04.239Z,100
2018-09-04T06:42:04.025Z,100
2018-09-04T06:47:04.168Z,100
2018-09-04T06:52:04.254Z,100
2018-09-04T06:57:04.254Z,100
2018-09-04T07:02:04.178Z,100
2018-09-04T07:07:04.060Z,100
2018-09-04T07:12:04.267Z,100
2018-09-04T07:17:07.880Z,100
2018-09-04T07:22:07.545Z,100
2018-09-04T07:27:19.734Z,100
2018-09-04T07:32:19.669Z,100
2018-09-04T07:37:19.697Z,100
2018-09-04T07:42:19.451Z,100
2018-09-04T07:47:19.671Z,99.6
2018-09-04T07:52:19.703Z,99.5
2018-09-04T07:57:19.617Z,99.3
2018-09-04T08:02:19.732Z,100
2018-09-04T08:07:19.752Z,99
2018-09-04T08:12:34.403Z,97.6
2018-09-04T08:17:34.113Z,96.8
2018-09-04T08:22:34.236Z,95.9
2018-09-04T08:27:34.276Z,94.4
2018-09-04T08:32:34.315Z,91.8
2018-09-04T08:37:34.137Z,91.3
2018-09-04T08:42:34.270Z,89.1
2018-09-04T08:47:35.609Z,87.8
2018-09-04T08:52:34.125Z,88.2
2018-09-04T08:57:34.269Z,87.5
2018-09-04T09:02:34.159Z,86.4
2018-09-04T09:07:34.151Z,87
2018-09-04T09:12:35.311Z,84.1
2018-09-04T09:17:35.036Z,84.9
2018-09-04T09:22:48.396Z,84.6
2018-09-04T09:27:48.216Z,85.2
2018-09-04T09:32:48.035Z,85.1
2018-09-04T09:37:48.168Z,85.9
2018-09-04T09:42:48.166Z,83.7
2018-09-04T09:47:47.968Z,81.7
2018-09-04T09:52:48.438Z,81.4
2018-09-04T09:57:50.475Z,81.3
2018-09-04T10:02:50.347Z,79.9
2018-09-04T10:08:03.308Z,81.5
2018-09-04T10:13:02.743Z,82.7
2018-09-04T10:18:03.001Z,82
2018-09-04T10:23:02.898Z,82.7
2018-09-04T10:28:02.769Z,84
2018-09-04T10:33:03.037Z,85.2
2018-09-04T10:38:02.768Z,85.4
2018-09-04T10:43:03.831Z,85
2018-09-04T10:48:03.355Z,84.6
2018-09-04T10:53:16.163Z,83.6
2018-09-04T10:58:15.883Z,81
2018-09-04T11:03:16.098Z,81
2018-09-04T11:08:15.853Z,79.5
2018-09-04T11:13:16.045Z,76.1
2018-09-04T11:18:16.091Z,74.4
2018-09-04T11:23:16.157Z,75
2018-09-04T11:28:18.830Z,75.4
2018-09-04T11:33:18.599Z,75.6
2018-09-04T11:38:29.217Z,75.1
2018-09-04T11:43:29.056Z,74.3
2018-09-04T11:48:28.952Z,72.3
2018-09-04T11:53:29.123Z,72.7
2018-09-04T11:58:29.170Z,72.8
2018-09-04T12:03:29.210Z,72.7
2018-09-04T12:08:28.926Z,73.3
2018-09-04T12:13:29.413Z,74
2018-09-04T12:18:29.149Z,73.7
2018-09-04T12:23:42.384Z,73.2
2018-09-04T12:28:42.091Z,74.2
2018-09-04T12:33:42.316Z,74.9
2018-09-04T12:38:42.206Z,76.2
2018-09-04T12:43:42.217Z,76.9
2018-09-04T12:48:42.563Z,77
2018-09-04T12:53:42.344Z,77.7
2018-09-04T12:58:42.511Z,80.5
2018-09-04T13:03:42.329Z,82.9
2018-09-04T13:08:55.313Z,84.6
2018-09-04T13:13:55.064Z,83.8
2018-09-04T13:18:55.099Z,85
2018-09-04T13:23:55.455Z,85.4
2018-09-04T13:28:55.367Z,84.9
2018-09-04T13:33:55.197Z,85.8
2018-09-04T13:38:55.472Z,85.3
2018-09-04T13:43:55.224Z,84.8
2018-09-04T13:48:55.259Z,84.2
2018-09-04T13:53:55.346Z,85.2
2018-09-04T13:58:55.469Z,84.5
2018-09-04T14:03:55.524Z,85.4
2018-09-04T14:08:55.372Z,85.6
2018-09-04T14:13:55.684Z,86.4
2018-09-04T14:19:04.920Z,86.4
2018-09-04T14:24:04.654Z,86.3
2018-09-04T14:29:07.662Z,86
2018-09-04T14:34:04.950Z,84.5
2018-09-04T14:39:04.877Z,85.5
2018-09-04T14:44:04.661Z,85.5
2018-09-04T14:49:04.764Z,85.7
2018-09-04T14:54:05.084Z,84.4
2018-09-04T14:59:04.822Z,85
2018-09-04T15:04:18.065Z,85.8
2018-09-04T15:09:17.760Z,87.3
2018-09-04T15:14:17.677Z,85.9
2018-09-04T15:19:17.704Z,86.7
2018-09-04T15:24:17.699Z,86.4
2018-09-04T15:29:17.706Z,85.3
2018-09-04T15:34:18.077Z,84.7
2018-09-04T15:39:17.721Z,84.1
2018-09-04T15:44:17.685Z,84.4
2018-09-04T15:49:17.969Z,85
2018-09-04T15:54:17.708Z,84.2
2018-09-04T15:59:17.728Z,85.4
2018-09-04T16:04:17.723Z,85
2018-09-04T16:09:17.741Z,84.8
2018-09-04T16:14:31.054Z,84.9
2018-09-04T16:19:30.803Z,84.9
2018-09-04T16:24:30.885Z,84.3
2018-09-04T16:29:30.832Z,84.9
2018-09-04T16:34:31.080Z,84.3
2018-09-04T16:39:31.015Z,83.4
2018-09-04T16:44:30.858Z,84.7
2018-09-04T16:49:30.766Z,84.6
2018-09-04T16:54:30.815Z,84.7
2018-09-04T16:59:45.647Z,84.6
2018-09-04T17:04:42.312Z,85.3
2018-09-04T17:09:42.289Z,85
2018-09-04T17:14:42.315Z,85.6
2018-09-04T17:19:42.317Z,85.5
2018-09-04T17:24:42.312Z,86.1
2018-09-04T17:29:42.577Z,86.8
2018-09-04T17:34:47.867Z,86.7
2018-09-04T17:39:47.724Z,87.3
2018-09-04T17:45:01.957Z,88.3
2018-09-04T17:50:01.671Z,88.6
2018-09-04T17:55:01.933Z,88.3
2018-09-04T18:00:01.698Z,87.9
2018-09-04T18:05:01.847Z,88.8
2018-09-04T18:10:01.832Z,88.4
2018-09-04T18:15:01.840Z,88.5
2018-09-04T18:20:03.978Z,88.4
2018-09-04T18:25:03.658Z,89.1
2018-09-04T18:30:20.755Z,89.5
2018-09-04T18:35:22.785Z,88.8
2018-09-04T18:40:20.470Z,89.3
2018-09-04T18:45:20.542Z,88.6
2018-09-04T18:50:20.601Z,89.4
2018-09-04T18:55:20.448Z,88.6
2018-09-04T19:00:20.591Z,89
2018-09-04T19:05:26.080Z,88.3
2018-09-04T19:10:26.000Z,88.2
2018-09-04T19:15:36.841Z,88.1
2018-09-04T19:20:36.588Z,87.8
2018-09-04T19:25:36.625Z,88.1
2018-09-04T19:30:36.371Z,87.2
2018-09-04T19:35:36.585Z,87.7
2018-09-04T19:40:36.633Z,87.9
2018-09-04T19:45:36.669Z,87.6
2018-09-04T19:50:37.434Z,87.9
2018-09-04T19:55:37.353Z,88.8
2018-09-04T20:00:49.563Z,87.6
2018-09-04T20:05:49.058Z,88.6
2018-09-04T20:10:49.206Z,88.2
2018-09-04T20:15:49.299Z,88.4
2018-09-04T20:20:49.029Z,89.2
2018-09-04T20:25:49.077Z,87.9
2018-09-04T20:30:49.289Z,88.1
2018-09-04T20:35:49.260Z,88.2
2018-09-04T20:40:52.087Z,88.7
2018-09-04T20:45:49.084Z,88.7
2018-09-04T20:50:49.081Z,89.1
2018-09-04T20:55:49.081Z,89.1
2018-09-04T21:00:50.330Z,90.4
2018-09-04T21:05:50.333Z,90.7
2018-09-04T21:11:03.089Z,93
2018-09-04T21:16:02.985Z,94.3
2018-09-04T21:21:03.043Z,93.9
2018-09-04T21:26:02.820Z,94.8
2018-09-04T21:31:02.965Z,94.4
2018-09-04T21:36:03.030Z,96.1
2018-09-04T21:41:02.931Z,96.2
2018-09-04T21:46:05.888Z,95.1
2018-09-04T21:51:05.845Z,95.7
2018-09-04T21:56:18.527Z,96.1
2018-09-04T22:01:18.463Z,97.1
2018-09-04T22:06:18.284Z,97.1
2018-09-04T22:11:18.201Z,97
2018-09-04T22:16:18.441Z,96.8
2018-09-04T22:21:18.495Z,97.3
2018-09-04T22:26:18.404Z,97.9
2018-09-04T22:31:22.112Z,98.9
2018-09-04T22:36:22.056Z,98.7
2018-09-04T22:41:34.249Z,98.7
2018-09-04T22:46:34.112Z,99
2018-09-04T22:51:34.152Z,99.4
2018-09-04T22:56:33.964Z,99.7
2018-09-04T23:01:34.211Z,98.8
2018-09-04T23:06:34.135Z,99.2
2018-09-04T23:11:34.172Z,100
2018-09-04T23:16:34.300Z,100
2018-09-04T23:21:34.295Z,100
2018-09-04T23:26:46.911Z,100
2018-09-04T23:31:46.806Z,100
2018-09-04T23:36:46.617Z,100
2018-09-04T23:41:47.029Z,100
2018-09-04T23:46:46.846Z,100
2018-09-04T23:51:46.580Z,100
2018-09-04T23:56:46.638Z,100
